createdAt,value
2019-02-20T00:01:55.452Z,6.50
2019-02-20T00:04:23.898Z,6.40
2019-02-20T00:06:52.323Z,6.50
2019-02-20T00:09:20.758Z,6.40
2019-02-20T00:11:49.183Z,6.40
2019-02-20T00:14:17.603Z,6.30
2019-02-20T00:16:46.051Z,6.30
2019-02-20T00:19:14.482Z,6.30
2019-02-20T00:21:42.906Z,6.30
2019-02-20T00:24:11.321Z,6.20
2019-02-20T00:26:39.769Z,6.20
2019-02-20T00:29:08.178Z,6.20
2019-02-20T00:31:36.658Z,6.20
2019-02-20T00:34:05.143Z,6.20
2019-02-20T00:36:33.687Z,6.10
2019-02-20T00:39:02.102Z,6.10
2019-02-20T00:41:30.668Z,6.00
2019-02-20T00:44:03.309Z,6.00
2019-02-20T00:46:33.386Z,6.00
2019-02-20T00:49:03.435Z,5.90
2019-02-20T00:51:48.886Z,6.00
2019-02-20T00:54:17.429Z,6.10
2019-02-20T00:56:45.842Z,6.10
2019-02-20T00:59:14.382Z,6.00
2019-02-20T01:01:42.795Z,6.00
2019-02-20T01:04:11.232Z,5.90
2019-02-20T01:06:39.651Z,5.80
2019-02-20T01:09:08.539Z,5.80
2019-02-20T01:11:37.022Z,5.70
2019-02-20T01:14:05.429Z,5.60
2019-02-20T01:16:33.906Z,5.60
2019-02-20T01:19:02.410Z,5.40
2019-02-20T01:21:30.871Z,5.40
2019-02-20T01:23:59.286Z,5.30
2019-02-20T01:26:27.721Z,5.30
2019-02-20T01:28:56.153Z,5.20
2019-02-20T01:31:24.581Z,5.30
2019-02-20T01:33:52.999Z,5.30
2019-02-20T01:36:21.487Z,5.30
2019-02-20T01:38:49.898Z,5.20
2019-02-20T01:41:18.310Z,5.30
2019-02-20T01:43:46.828Z,5.20
2019-02-20T01:46:15.237Z,5.30
2019-02-20T01:48:43.658Z,5.10
2019-02-20T01:51:12.078Z,5.20
2019-02-20T01:53:40.511Z,5.20
2019-02-20T01:56:08.960Z,5.20
2019-02-20T01:58:37.374Z,5.30
2019-02-20T02:01:05.799Z,5.30
2019-02-20T02:03:34.228Z,5.30
2019-02-20T02:06:02.662Z,5.50
2019-02-20T02:08:31.072Z,5.50
2019-02-20T02:10:59.508Z,5.60
2019-02-20T02:13:27.994Z,5.60
2019-02-20T02:15:56.440Z,5.70
2019-02-20T02:18:24.846Z,5.90
2019-02-20T02:20:53.270Z,5.80
2019-02-20T02:23:21.687Z,5.70
2019-02-20T02:25:50.189Z,5.80
2019-02-20T02:28:18.627Z,5.80
2019-02-20T02:30:47.163Z,5.80
2019-02-20T02:33:15.581Z,5.70
2019-02-20T02:35:43.986Z,5.70
2019-02-20T02:38:12.419Z,5.80
2019-02-20T02:40:40.853Z,5.90
2019-02-20T02:43:09.263Z,5.90
2019-02-20T02:45:37.725Z,5.80
2019-02-20T02:48:06.213Z,5.80
2019-02-20T02:50:34.647Z,5.90
2019-02-20T02:53:03.058Z,5.80
2019-02-20T02:55:31.491Z,5.80
2019-02-20T02:57:59.894Z,5.90
2019-02-20T03:00:28.314Z,5.90
2019-02-20T03:02:56.741Z,5.90
2019-02-20T03:05:25.158Z,6.00
2019-02-20T03:07:53.596Z,5.90
2019-02-20T03:10:22.015Z,5.90
2019-02-20T03:12:50.422Z,5.90
2019-02-20T03:15:18.851Z,5.90
2019-02-20T03:17:47.275Z,5.90
2019-02-20T03:20:15.810Z,6.00
2019-02-20T03:22:44.271Z,5.90
2019-02-20T03:25:12.702Z,5.90
2019-02-20T03:27:41.120Z,5.90
2019-02-20T03:30:10.038Z,6.00
2019-02-20T03:32:38.451Z,5.90
2019-02-20T03:35:07.026Z,6.00
2019-02-20T03:37:35.467Z,5.90
2019-02-20T03:40:05.934Z,5.90
2019-02-20T03:42:34.370Z,5.90
2019-02-20T03:45:02.873Z,5.90
2019-02-20T03:47:31.359Z,5.90
2019-02-20T03:49:59.798Z,6.00
2019-02-20T03:52:28.262Z,6.00
2019-02-20T03:54:56.716Z,6.00
2019-02-20T03:57:25.168Z,5.90
2019-02-20T03:59:53.773Z,5.90
2019-02-20T04:02:22.213Z,6.00
2019-02-20T04:04:50.630Z,5.90
2019-02-20T04:07:19.131Z,5.90
2019-02-20T04:09:47.564Z,5.90
2019-02-20T04:12:15.974Z,6.00
2019-02-20T04:14:44.411Z,5.90
2019-02-20T04:17:12.846Z,6.00
2019-02-20T04:19:41.331Z,6.00
2019-02-20T04:22:09.773Z,6.00
2019-02-20T04:24:38.206Z,6.00
2019-02-20T04:27:06.712Z,6.00
2019-02-20T04:29:35.123Z,6.00
2019-02-20T04:32:03.560Z,6.00
2019-02-20T04:34:31.984Z,6.00
2019-02-20T04:37:00.419Z,5.90
2019-02-20T04:39:28.842Z,5.90
2019-02-20T04:41:57.274Z,5.90
2019-02-20T04:44:25.729Z,6.00
2019-02-20T04:46:54.158Z,6.00
2019-02-20T04:49:22.575Z,5.90
2019-02-20T04:51:51.011Z,6.00
2019-02-20T04:54:19.451Z,6.00
2019-02-20T04:56:47.919Z,6.00
2019-02-20T04:59:16.390Z,6.00
2019-02-20T05:01:44.809Z,6.10
2019-02-20T05:04:13.298Z,6.10
2019-02-20T05:06:41.748Z,6.00
2019-02-20T05:09:10.183Z,6.10
2019-02-20T05:11:38.599Z,6.00
2019-02-20T05:14:07.015Z,6.00
2019-02-20T05:16:35.461Z,6.00
2019-02-20T05:19:03.881Z,6.00
2019-02-20T05:21:32.320Z,6.00
2019-02-20T05:24:00.837Z,6.10
2019-02-20T05:26:29.270Z,6.10
2019-02-20T05:28:57.691Z,6.10
2019-02-20T05:31:26.124Z,6.10
2019-02-20T05:33:54.552Z,6.10
2019-02-20T05:36:23.000Z,6.10
2019-02-20T05:38:51.491Z,6.00
2019-02-20T05:41:19.907Z,6.00
2019-02-20T05:43:48.344Z,5.90
2019-02-20T05:46:16.760Z,6.00
2019-02-20T05:48:45.193Z,6.00
2019-02-20T05:51:13.707Z,6.00
2019-02-20T05:53:42.130Z,6.00
2019-02-20T05:56:10.564Z,6.00
2019-02-20T05:58:38.992Z,5.90
2019-02-20T06:01:07.415Z,5.80
2019-02-20T06:03:35.872Z,5.80
2019-02-20T06:06:04.441Z,5.80
2019-02-20T06:08:32.847Z,5.70
2019-02-20T06:11:01.291Z,5.70
2019-02-20T06:13:29.707Z,5.80
2019-02-20T06:15:58.203Z,5.70
2019-02-20T06:18:26.650Z,5.60
2019-02-20T06:20:55.223Z,5.60
2019-02-20T06:23:23.725Z,5.70
2019-02-20T06:25:52.176Z,5.70
2019-02-20T06:28:20.594Z,5.70
2019-02-20T06:30:49.022Z,5.70
2019-02-20T06:33:17.447Z,5.60
2019-02-20T06:35:45.969Z,5.50
2019-02-20T06:38:14.402Z,5.50
2019-02-20T06:40:42.844Z,5.40
2019-02-20T06:43:11.260Z,5.40
2019-02-20T06:45:39.675Z,5.40
2019-02-20T06:48:08.111Z,5.40
2019-02-20T06:50:36.614Z,5.40
2019-02-20T06:53:05.055Z,5.50
2019-02-20T06:55:33.493Z,5.50
2019-02-20T06:58:01.896Z,5.50
2019-02-20T07:00:30.331Z,5.40
2019-02-20T07:02:58.765Z,5.40
2019-02-20T07:05:38.274Z,5.40
2019-02-20T07:08:39.659Z,5.40
2019-02-20T07:11:13.835Z,5.50
2019-02-20T07:13:57.517Z,5.50
2019-02-20T07:17:02.444Z,5.50
2019-02-20T07:19:55.051Z,4.80
2019-02-20T07:22:38.626Z,5.60
2019-02-20T07:25:22.233Z,5.50
2019-02-20T07:28:02.187Z,5.50
2019-02-20T07:30:30.622Z,5.50
2019-02-20T07:32:59.034Z,5.50
2019-02-20T07:35:27.476Z,5.50
2019-02-20T07:37:55.923Z,5.50
2019-02-20T07:40:24.330Z,5.60
2019-02-20T07:42:52.738Z,5.70
2019-02-20T07:45:21.226Z,5.90
2019-02-20T07:47:49.682Z,5.90
2019-02-20T07:50:18.150Z,6.00
2019-02-20T07:52:46.583Z,5.90
2019-02-20T07:55:15.087Z,6.00
2019-02-20T07:57:43.497Z,6.10
2019-02-20T08:00:13.696Z,6.10
2019-02-20T08:02:42.227Z,6.20
2019-02-20T08:05:10.803Z,6.30
2019-02-20T08:07:39.241Z,6.40
2019-02-20T08:10:10.396Z,6.40
2019-02-20T08:12:38.921Z,6.40
2019-02-20T08:15:10.074Z,6.40
2019-02-20T08:17:38.501Z,6.50
2019-02-20T08:20:08.959Z,6.60
2019-02-20T08:22:37.518Z,6.60
2019-02-20T08:25:07.398Z,6.60
2019-02-20T08:27:35.939Z,6.60
2019-02-20T08:30:06.890Z,6.70
2019-02-20T08:32:36.191Z,6.80
2019-02-20T08:35:06.076Z,6.80
2019-02-20T08:37:34.514Z,6.80
2019-02-20T08:40:03.080Z,6.90
2019-02-20T08:42:31.514Z,7.00
2019-02-20T08:44:59.946Z,7.10
2019-02-20T08:47:28.400Z,7.20
2019-02-20T08:49:56.818Z,7.30
2019-02-20T08:52:25.295Z,7.30
2019-02-20T08:54:53.723Z,7.30
2019-02-20T08:57:22.151Z,7.40
2019-02-20T08:59:51.789Z,7.50
2019-02-20T09:02:20.383Z,7.50
2019-02-20T09:04:48.810Z,7.60
2019-02-20T09:07:17.236Z,7.60
2019-02-20T09:09:45.723Z,7.70
2019-02-20T09:12:14.185Z,7.60
2019-02-20T09:14:42.592Z,7.70
2019-02-20T09:17:11.051Z,7.70
2019-02-20T09:19:39.481Z,7.70
2019-02-20T09:22:07.916Z,7.80
2019-02-20T09:24:36.395Z,7.80
2019-02-20T09:27:04.819Z,7.90
2019-02-20T09:29:33.259Z,7.90
2019-02-20T09:32:01.678Z,7.90
2019-02-20T09:34:30.127Z,7.90
2019-02-20T09:36:58.534Z,8.00
2019-02-20T09:39:32.334Z,8.20
2019-02-20T09:42:00.848Z,8.20
2019-02-20T09:44:32.016Z,8.20
2019-02-20T09:47:00.454Z,8.20
2019-02-20T09:49:28.875Z,8.10
2019-02-20T09:51:57.379Z,8.20
2019-02-20T09:54:25.786Z,8.20
2019-02-20T09:56:54.203Z,8.20
2019-02-20T09:59:22.710Z,8.20
2019-02-20T10:01:51.198Z,8.30
2019-02-20T10:04:19.610Z,8.30
2019-02-20T10:06:48.052Z,8.30
2019-02-20T10:09:16.467Z,8.40
2019-02-20T10:11:44.930Z,8.50
2019-02-20T10:14:13.358Z,8.50
2019-02-20T10:16:41.755Z,8.60
2019-02-20T10:19:10.198Z,8.50
2019-02-20T10:21:38.711Z,8.60
2019-02-20T10:24:07.127Z,8.60
2019-02-20T10:26:35.566Z,8.70
2019-02-20T10:29:04.042Z,8.80
2019-02-20T10:31:32.478Z,8.90
2019-02-20T10:34:00.907Z,8.90
2019-02-20T10:36:29.335Z,9.10
2019-02-20T10:38:57.751Z,9.30
2019-02-20T10:41:26.186Z,9.20
2019-02-20T10:43:54.682Z,9.40
2019-02-20T10:46:23.107Z,9.30
2019-02-20T10:48:51.578Z,9.40
2019-02-20T10:51:20.025Z,9.50
2019-02-20T10:53:48.466Z,9.40
2019-02-20T10:56:16.888Z,9.50
2019-02-20T10:58:45.382Z,9.50
2019-02-20T11:01:13.902Z,9.30
2019-02-20T11:03:42.319Z,9.40
2019-02-20T11:06:10.838Z,9.50
2019-02-20T11:08:39.574Z,9.40
2019-02-20T11:11:07.989Z,9.50
2019-02-20T11:13:36.512Z,9.60
2019-02-20T11:16:04.934Z,9.70
2019-02-20T11:18:33.478Z,9.90
2019-02-20T11:21:02.053Z,9.90
2019-02-20T11:23:30.476Z,10.20
2019-02-20T11:25:58.894Z,10.30
2019-02-20T11:28:27.375Z,10.30
2019-02-20T11:30:56.890Z,10.40
2019-02-20T11:33:25.431Z,10.50
2019-02-20T11:35:53.863Z,10.80
2019-02-20T11:38:22.283Z,10.60
2019-02-20T11:40:50.711Z,10.60
2019-02-20T11:43:19.138Z,10.60
2019-02-20T11:45:47.651Z,10.50
2019-02-20T11:48:16.074Z,10.50
2019-02-20T11:50:44.514Z,10.40
2019-02-20T11:53:12.925Z,10.40
2019-02-20T11:55:41.368Z,10.40
2019-02-20T11:58:09.791Z,10.30
2019-02-20T12:00:38.367Z,10.30
2019-02-20T12:03:06.792Z,10.20
2019-02-20T12:05:35.231Z,10.30
2019-02-20T12:08:03.739Z,10.40
2019-02-20T12:10:32.404Z,10.50
2019-02-20T12:13:00.858Z,10.50
2019-02-20T12:15:29.282Z,10.50
2019-02-20T12:17:57.822Z,10.40
2019-02-20T12:20:26.267Z,10.50
2019-02-20T12:22:54.683Z,10.50
2019-02-20T12:25:23.162Z,10.40
2019-02-20T12:27:51.623Z,10.50
2019-02-20T12:30:20.030Z,10.50
2019-02-20T12:32:48.473Z,10.50
2019-02-20T12:35:16.896Z,10.40
2019-02-20T12:37:45.333Z,10.60
2019-02-20T12:40:13.752Z,10.60
2019-02-20T12:42:42.367Z,10.70
2019-02-20T12:45:10.863Z,10.80
2019-02-20T12:47:39.277Z,10.90
2019-02-20T12:50:12.649Z,10.90
2019-02-20T12:52:41.079Z,10.90
2019-02-20T12:55:10.140Z,10.90
2019-02-20T12:57:38.601Z,11.10
2019-02-20T13:00:12.660Z,11.30
2019-02-20T13:02:41.071Z,11.50
2019-02-20T13:05:09.486Z,11.40
2019-02-20T13:07:37.964Z,11.50
2019-02-20T13:10:08.112Z,11.40
2019-02-20T13:12:36.547Z,11.50
2019-02-20T13:15:07.715Z,11.50
2019-02-20T13:17:36.132Z,11.50
2019-02-20T13:20:05.826Z,11.40
2019-02-20T13:22:34.320Z,11.30
2019-02-20T13:25:04.085Z,11.40
2019-02-20T13:27:32.799Z,11.60
2019-02-20T13:30:01.239Z,11.60
2019-02-20T13:32:29.682Z,11.40
2019-02-20T13:34:58.281Z,11.30
2019-02-20T13:37:26.778Z,11.30
2019-02-20T13:39:55.207Z,11.30
2019-02-20T13:42:23.758Z,11.30
2019-02-20T13:44:53.804Z,11.30
2019-02-20T13:47:22.335Z,11.30
2019-02-20T13:49:50.850Z,11.30
2019-02-20T13:52:19.511Z,11.20
2019-02-20T13:54:47.951Z,11.10
2019-02-20T13:57:16.802Z,11.20
2019-02-20T13:59:45.236Z,11.40
2019-02-20T14:02:13.686Z,11.40
2019-02-20T14:04:42.158Z,11.30
2019-02-20T14:07:10.590Z,11.20
2019-02-20T14:09:39.023Z,11.20
2019-02-20T14:12:07.484Z,11.00
2019-02-20T14:14:36.364Z,11.00
2019-02-20T14:17:04.841Z,10.90
2019-02-20T14:19:33.425Z,11.00
2019-02-20T14:22:01.935Z,10.90
2019-02-20T14:24:30.467Z,10.80
2019-02-20T14:26:58.958Z,10.80
2019-02-20T14:29:27.434Z,10.80
2019-02-20T14:31:56.242Z,10.80
2019-02-20T14:34:24.666Z,10.80
2019-02-20T14:36:53.131Z,10.90
2019-02-20T14:39:21.859Z,11.00
2019-02-20T14:41:50.354Z,11.00
2019-02-20T14:44:18.806Z,10.90
2019-02-20T14:46:47.309Z,11.00
2019-02-20T14:49:15.788Z,11.00
2019-02-20T14:51:44.230Z,11.00
2019-02-20T14:54:12.675Z,10.90
2019-02-20T14:56:41.179Z,10.90
2019-02-20T14:59:09.664Z,10.80
2019-02-20T15:01:38.148Z,10.80
2019-02-20T15:04:07.070Z,10.80
2019-02-20T15:06:35.670Z,10.80
2019-02-20T15:09:05.109Z,10.80
2019-02-20T15:11:33.597Z,10.80
2019-02-20T15:14:02.119Z,10.80
2019-02-20T15:16:30.699Z,10.80
2019-02-20T15:18:59.228Z,10.70
2019-02-20T15:21:27.999Z,10.60
2019-02-20T15:23:56.485Z,10.50
2019-02-20T15:26:25.011Z,10.50
2019-02-20T15:28:54.786Z,10.30
2019-02-20T15:31:23.362Z,10.20
2019-02-20T15:33:51.872Z,10.20
2019-02-20T15:36:20.360Z,10.30
2019-02-20T15:38:48.867Z,10.20
2019-02-20T15:41:17.450Z,10.20
2019-02-20T15:43:45.934Z,10.10
2019-02-20T15:46:14.391Z,10.00
2019-02-20T15:48:42.818Z,9.90
2019-02-20T15:51:11.301Z,9.90
2019-02-20T15:53:40.219Z,9.90
2019-02-20T15:56:08.738Z,9.80
2019-02-20T15:58:37.248Z,9.70
2019-02-20T16:01:07.882Z,9.70
2019-02-20T16:03:36.330Z,9.60
2019-02-20T16:06:04.938Z,9.70
2019-02-20T16:08:33.444Z,9.70
2019-02-20T16:11:02.324Z,9.70
2019-02-20T16:13:30.759Z,9.60
2019-02-20T16:15:59.195Z,9.60
2019-02-20T16:18:27.623Z,9.50
2019-02-20T16:20:56.079Z,9.60
2019-02-20T16:23:24.502Z,9.60
2019-02-20T16:25:52.923Z,9.60
2019-02-20T16:28:21.540Z,9.70
2019-02-20T16:30:50.018Z,9.70
2019-02-20T16:33:18.462Z,9.50
2019-02-20T16:35:48.368Z,9.50
2019-02-20T16:38:17.010Z,9.50
2019-02-20T16:40:45.726Z,9.60
2019-02-20T16:43:14.674Z,9.70
2019-02-20T16:45:43.115Z,9.50
2019-02-20T16:48:11.805Z,9.30
2019-02-20T16:50:40.345Z,9.20
2019-02-20T16:53:08.759Z,9.30
2019-02-20T16:55:37.178Z,9.30
2019-02-20T16:58:05.765Z,9.50
2019-02-20T17:00:34.780Z,9.60
2019-02-20T17:03:03.265Z,9.60
2019-02-20T17:05:31.708Z,9.60
2019-02-20T17:08:00.235Z,9.50
2019-02-20T17:10:28.760Z,9.30
2019-02-20T17:12:57.198Z,9.30
2019-02-20T17:15:25.703Z,9.30
2019-02-20T17:17:54.250Z,9.40
2019-02-20T17:20:22.844Z,9.40
2019-02-20T17:22:51.715Z,9.30
2019-02-20T17:25:20.475Z,9.20
2019-02-20T17:27:48.991Z,9.20
2019-02-20T17:30:18.801Z,9.30
2019-02-20T17:32:47.760Z,9.30
2019-02-20T17:35:17.243Z,9.30
2019-02-20T17:37:45.852Z,9.10
2019-02-20T17:40:15.752Z,9.10
2019-02-20T17:42:44.247Z,9.10
2019-02-20T17:45:17.544Z,9.10
2019-02-20T17:47:46.408Z,9.10
2019-02-20T17:50:20.292Z,9.00
2019-02-20T17:52:48.706Z,8.90
2019-02-20T17:55:17.152Z,8.70
2019-02-20T17:57:45.582Z,8.40
2019-02-20T18:00:16.534Z,8.30
2019-02-20T18:02:44.950Z,8.10
2019-02-20T18:05:13.954Z,7.90
2019-02-20T18:07:48.576Z,7.80
2019-02-20T18:10:13.204Z,7.80
2019-02-20T18:12:41.637Z,7.70
2019-02-20T18:15:14.269Z,7.70
2019-02-20T18:17:42.678Z,7.80
2019-02-20T18:20:11.817Z,8.00
2019-02-20T18:22:40.269Z,7.80
2019-02-20T18:25:10.148Z,7.90
2019-02-20T18:27:38.734Z,8.00
2019-02-20T18:30:10.495Z,7.90
2019-02-20T18:32:38.915Z,7.80
2019-02-20T18:35:09.975Z,7.70
2019-02-20T18:37:38.406Z,8.00
2019-02-20T18:40:09.936Z,8.10
2019-02-20T18:42:38.444Z,8.20
2019-02-20T18:45:09.813Z,7.90
2019-02-20T18:47:38.334Z,7.90
2019-02-20T18:50:09.487Z,7.80
2019-02-20T18:52:37.975Z,7.80
2019-02-20T18:55:09.615Z,7.80
2019-02-20T18:57:38.127Z,7.70
2019-02-20T19:00:12.190Z,7.70
2019-02-20T19:02:40.697Z,7.60
2019-02-20T19:05:10.275Z,7.50
2019-02-20T19:07:38.859Z,7.60
2019-02-20T19:10:10.461Z,7.70
2019-02-20T19:12:47.592Z,7.50
2019-02-20T19:15:48.098Z,7.50
2019-02-20T19:18:37.672Z,7.50
2019-02-20T19:21:18.183Z,7.60
2019-02-20T19:24:15.640Z,7.60
2019-02-20T19:27:07.035Z,7.70
2019-02-20T19:29:56.110Z,7.80
2019-02-20T19:32:39.254Z,7.90
2019-02-20T19:35:16.774Z,7.70
2019-02-20T19:38:09.127Z,7.80
2019-02-20T19:40:45.386Z,7.80
2019-02-20T19:43:33.518Z,7.70
2019-02-20T19:46:28.883Z,7.90
2019-02-20T19:49:03.418Z,7.80
2019-02-20T19:51:53.069Z,7.90
2019-02-20T19:54:35.855Z,7.80
2019-02-20T19:57:24.015Z,7.70
2019-02-20T20:00:19.544Z,7.60
2019-02-20T20:03:03.041Z,7.60
2019-02-20T20:05:58.688Z,7.60
2019-02-20T20:08:30.319Z,7.60
2019-02-20T20:11:18.427Z,7.60
2019-02-20T20:13:52.905Z,7.50
2019-02-20T20:16:39.349Z,7.60
2019-02-20T20:19:16.682Z,7.60
2019-02-20T20:22:09.691Z,7.50
2019-02-20T20:24:49.893Z,7.50
2019-02-20T20:27:42.572Z,7.50
2019-02-20T20:30:29.349Z,7.40
2019-02-20T20:33:18.946Z,7.40
2019-02-20T20:36:02.233Z,7.40
2019-02-20T20:38:48.679Z,7.50
2019-02-20T20:41:29.042Z,7.50
2019-02-20T20:44:00.594Z,7.50
2019-02-20T20:46:37.985Z,7.50
2019-02-20T20:49:21.335Z,7.50
2019-02-20T20:52:11.254Z,7.50
2019-02-20T20:55:00.980Z,7.50
2019-02-20T20:57:41.717Z,7.50
2019-02-20T21:00:13.346Z,7.50
2019-02-20T21:02:45.237Z,7.40
2019-02-20T21:05:22.797Z,7.40
2019-02-20T21:08:00.196Z,7.30
2019-02-20T21:10:48.285Z,7.30
2019-02-20T21:13:39.365Z,7.30
2019-02-20T21:16:45.989Z,7.30
2019-02-20T21:19:41.032Z,7.30
2019-02-20T21:22:27.380Z,7.30
2019-02-20T21:25:04.695Z,7.30
2019-02-20T21:27:54.424Z,7.40
2019-02-20T21:30:34.598Z,7.40
2019-02-20T21:33:06.139Z,7.40
2019-02-20T21:35:40.574Z,7.50
2019-02-20T21:38:32.746Z,7.50
2019-02-20T21:41:07.234Z,7.40
2019-02-20T21:43:38.774Z,7.40
2019-02-20T21:46:25.427Z,7.30
2019-02-20T21:49:06.024Z,7.40
2019-02-20T21:51:46.326Z,7.50
2019-02-20T21:54:35.464Z,7.40
2019-02-20T21:57:12.250Z,7.40
2019-02-20T21:59:43.827Z,7.30
2019-02-20T22:02:24.163Z,7.40
2019-02-20T22:05:22.891Z,7.30
2019-02-20T22:08:06.310Z,7.40
2019-02-20T22:10:54.232Z,7.30
2019-02-20T22:13:34.463Z,7.30
2019-02-20T22:16:17.838Z,7.20
2019-02-20T22:19:20.758Z,7.30
2019-02-20T22:22:10.335Z,7.30
2019-02-20T22:24:57.139Z,7.30
2019-02-20T22:27:31.587Z,7.30
2019-02-20T22:30:25.807Z,7.30
2019-02-20T22:33:09.444Z,7.30
2019-02-20T22:35:52.693Z,7.30
2019-02-20T22:38:32.880Z,7.30
2019-02-20T22:41:07.317Z,7.30
2019-02-20T22:43:58.466Z,7.30
2019-02-20T22:46:38.721Z,7.40
2019-02-20T22:49:12.967Z,7.30
2019-02-20T22:51:47.260Z,7.30
2019-02-20T22:54:35.202Z,7.20
2019-02-20T22:57:24.852Z,7.00
2019-02-20T23:00:34.591Z,7.00
2019-02-20T23:03:23.079Z,6.90
2019-02-20T23:06:12.951Z,6.80
2019-02-20T23:09:07.386Z,6.80
2019-02-20T23:11:47.959Z,6.80
2019-02-20T23:14:30.751Z,6.70
2019-02-20T23:16:59.195Z,6.70
2019-02-20T23:19:27.615Z,6.70
2019-02-20T23:21:56.179Z,6.80
2019-02-20T23:24:24.788Z,6.80
2019-02-20T23:26:53.199Z,6.90
2019-02-20T23:29:21.654Z,6.90
2019-02-20T23:31:50.067Z,7.00
2019-02-20T23:34:18.502Z,7.00
2019-02-20T23:36:46.984Z,7.10
2019-02-20T23:39:15.419Z,7.20
2019-02-20T23:41:43.851Z,7.10
2019-02-20T23:44:12.307Z,7.00
2019-02-20T23:46:40.740Z,7.00
2019-02-20T23:49:09.187Z,7.00
2019-02-20T23:51:37.682Z,7.00
2019-02-20T23:54:06.253Z,7.00
2019-02-20T23:56:34.664Z,7.10
2019-02-20T23:59:03.102Z,7.10
